Terminal Aerodrome Forecast
Issued by NWS Billings, MT

Home | Current Version | Previous Version | Text Only | Print | Product List | Glossary On
Versions: 1 2 3 4 5 6 7 8 9 10 11 12 13 14 15 16 17 18 19 20 21 22 23 24 25 26
000
FTUS45 KBYZ 051136
TAFBIL
TAF
KBIL 051136Z 0512/0612 22011KT P6SM SCT200
     FM051800 23007KT P6SM BKN150
     FM060500 24010KT P6SM VCSH BKN080
     FM060900 36012KT P6SM VCSH SCT060 BKN080=

USA.gov is the U.S. government's official web portal to all federal, state and local government web resources and services.